Dades meteomassalio
Diari Summary for Gener 5, 2017 Units:  English    Metric   Both
« Previous Day
Next Day »
Diari Semanal Mensual Anual Personalitzat
  Maxima: Minima: Mijana:
Temperatura: 53.8 °F 37.2 °F 46.9 °F
Rosada: 37 °F 17.1 °F 27.7 °F
Humitat: 70 % 25 % 50 %
Velocitat del vent: 0 mph 0 mph 0 mph
Racha vent: 0 mph - -
Vent:- - North
Pressio: 30.4 in 30.2 in -
Pluja: 0 in    
Historical Graphs
 
 
Tabular Data for Gener 5, 2017
Time Temperature Dew Point Pressure Wind Wind Speed Wind Gust Humidity Rainfall Rate (Hourly) solar Conditions
00:04 47.8 °F 30 °F 30.3 in Calm     50 % 0 in 0.0 W/m2 RA
00:09 47.7 °F 30.4 °F 30.3 in Calm     51 % 0 in 0.0 W/m2 CLR
00:14 47.5 °F 32 °F 30.3 in Calm     55 % 0 in 0.0 W/m2 CLR
00:19 46.9 °F 32.4 °F 30.3 in Calm     57 % 0 in 0.0 W/m2 CLR
00:24 46.4 °F 32.7 °F 30.3 in Calm     59 % 0 in 0.0 W/m2 CLR
00:29 46 °F 33.1 °F 30.3 in Calm     60 % 0 in 0.0 W/m2 CLR
00:34 45.9 °F 33.4 °F 30.3 in Calm     62 % 0 in 0.0 W/m2 CLR
00:39 45.7 °F 33.8 °F 30.3 in Calm     63 % 0 in 0.0 W/m2 CLR
00:44 45.1 °F 34.2 °F 30.3 in Calm     65 % 0 in 0.0 W/m2 CLR
00:49 45 °F 34.2 °F 30.3 in Calm     66 % 0 in 0.0 W/m2 CLR
00:54 44.8 °F 34.3 °F 30.3 in Calm     67 % 0 in 0.0 W/m2 CLR
00:59 44.8 °F 33.6 °F 30.3 in Calm     65 % 0 in 0.0 W/m2 CLR
01:04 45.3 °F 33.4 °F 30.3 in Calm     63 % 0 in 0.0 W/m2 CLR
01:09 46.6 °F 33.4 °F 30.3 in Calm     60 % 0 in 0.0 W/m2 CLR
01:14 47.1 °F 33.4 °F 30.3 in Calm     59 % 0 in 0.0 W/m2 CLR
01:19 47.3 °F 34.2 °F 30.3 in Calm     60 % 0 in 0.0 W/m2 CLR
01:24 47.5 °F 34 °F 30.3 in Calm     59 % 0 in 0.0 W/m2 CLR
01:29 47.8 °F 34.5 °F 30.3 in Calm     60 % 0 in 0.0 W/m2 CLR
01:34 47.8 °F 34.3 °F 30.3 in Calm     59 % 0 in 0.0 W/m2 CLR
01:39 47.8 °F 34.7 °F 30.3 in Calm     60 % 0 in 0.0 W/m2 CLR
01:44 47.8 °F 35.4 °F 30.3 in Calm     62 % 0 in 0.0 W/m2 CLR
01:49 48 °F 35.6 °F 30.3 in Calm     62 % 0 in 0.0 W/m2 CLR
01:54 47.8 °F 35.1 °F 30.3 in Calm     61 % 0 in 0.0 W/m2 CLR
01:59 47.8 °F 36.7 °F 30.3 in Calm     65 % 0 in 0.0 W/m2 CLR
02:04 47.8 °F 36.1 °F 30.3 in Calm     64 % 0 in 0.0 W/m2 CLR
02:09 47.8 °F 35.1 °F 30.3 in Calm     61 % 0 in 0.0 W/m2 CLR
02:14 48 °F 36 °F 30.3 in Calm     63 % 0 in 0.0 W/m2 CLR
02:19 47.8 °F 36.3 °F 30.3 in Calm     64 % 0 in 0.0 W/m2 CLR
02:24 47.8 °F 36.1 °F 30.3 in Calm     64 % 0 in 0.0 W/m2 CLR
02:29 47.7 °F 36.5 °F 30.3 in Calm     65 % 0 in 0.0 W/m2 CLR
02:34 47.5 °F 37 °F 30.3 in Calm     67 % 0 in 0.0 W/m2 CLR
02:39 47.3 °F 36.9 °F 30.3 in Calm     67 % 0 in 0.0 W/m2 CLR
02:44 47.1 °F 36.7 °F 30.3 in Calm     67 % 0 in 0.0 W/m2 CLR
02:49 47.1 °F 36.3 °F 30.3 in Calm     66 % 0 in 0.0 W/m2 CLR
02:54 47.3 °F 36.5 °F 30.3 in Calm     66 % 0 in 0.0 W/m2 CLR
02:59 47.5 °F 36.1 °F 30.3 in Calm     65 % 0 in 0.0 W/m2 CLR
03:04 47.5 °F 35.8 °F 30.3 in Calm     64 % 0 in 0.0 W/m2 CLR
03:09 47.5 °F 35.8 °F 30.3 in Calm     64 % 0 in 0.0 W/m2 CLR
03:14 47.5 °F 36.3 °F 30.3 in Calm     65 % 0 in 0.0 W/m2 CLR
03:19 47.1 °F 36 °F 30.3 in Calm     65 % 0 in 0.0 W/m2 CLR
03:24 47.1 °F 36.3 °F 30.3 in Calm     66 % 0 in 0.0 W/m2 CLR
03:29 46.9 °F 35.8 °F 30.3 in Calm     65 % 0 in 0.0 W/m2 CLR
03:34 47.1 °F 35.1 °F 30.3 in Calm     63 % 0 in 0.0 W/m2 CLR
03:40 46.9 °F 35.4 °F 30.3 in Calm     64 % 0 in 0.0 W/m2 CLR
03:45 46.9 °F 35.4 °F 30.3 in Calm     64 % 0 in 0.0 W/m2 CLR
03:50 46.8 °F 35.2 °F 30.3 in Calm     64 % 0 in 0.0 W/m2 CLR
03:55 46.8 °F 35.2 °F 30.3 in Calm     64 % 0 in 0.0 W/m2 CLR
04:00 46.9 °F 35.8 °F 30.3 in Calm     65 % 0 in 0.0 W/m2 CLR
04:05 46.9 °F 35.8 °F 30.3 in Calm     65 % 0 in 0.0 W/m2 CLR
04:10 46.8 °F 36 °F 30.3 in Calm     66 % 0 in 0.0 W/m2 CLR
04:15 46.8 °F 35.6 °F 30.3 in Calm     65 % 0 in 0.0 W/m2 CLR
04:20 46.8 °F 34.9 °F 30.3 in Calm     63 % 0 in 0.0 W/m2 CLR
04:25 46.9 °F 34.5 °F 30.3 in Calm     62 % 0 in 0.0 W/m2 CLR
04:30 47.3 °F 35.2 °F 30.3 in Calm     63 % 0 in 0.0 W/m2 CLR
04:35 47.3 °F 35.8 °F 30.3 in Calm     64 % 0 in 0.0 W/m2 CLR
04:40 47.1 °F 36 °F 30.3 in Calm     65 % 0 in 0.0 W/m2 CLR
04:45 46.9 °F 36.1 °F 30.3 in Calm     66 % 0 in 0.0 W/m2 CLR
04:50 46.6 °F 36.1 °F 30.3 in Calm     67 % 0 in 0.0 W/m2 CLR
04:55 46.2 °F 36.3 °F 30.3 in Calm     68 % 0 in 0.0 W/m2 CLR
05:00 46.2 °F 36.3 °F 30.3 in Calm     68 % 0 in 0.0 W/m2 CLR
05:05 46.2 °F 35.8 °F 30.3 in Calm     67 % 0 in 0.0 W/m2 CLR
05:10 46.2 °F 35.8 °F 30.3 in Calm     67 % 0 in 0.0 W/m2 CLR
05:15 46.2 °F 35.8 °F 30.3 in Calm     67 % 0 in 0.0 W/m2 CLR
05:20 46 °F 34.5 °F 30.3 in Calm     64 % 0 in 0.0 W/m2 CLR
05:25 46 °F 35.4 °F 30.3 in Calm     66 % 0 in 0.0 W/m2 CLR
05:30 46 °F 35.8 °F 30.3 in Calm     67 % 0 in 0.0 W/m2 CLR
05:35 45.9 °F 36 °F 30.3 in Calm     68 % 0 in 0.0 W/m2 CLR
05:40 45.9 °F 35.6 °F 30.3 in Calm     67 % 0 in 0.0 W/m2 CLR
05:45 45.9 °F 35.2 °F 30.3 in Calm     66 % 0 in 0.0 W/m2 CLR
05:50 45.9 °F 35.2 °F 30.3 in Calm     66 % 0 in 0.0 W/m2 CLR
05:55 45.9 °F 34.9 °F 30.2 in Calm     65 % 0 in 0.0 W/m2 CLR
06:00 46 °F 34.5 °F 30.3 in Calm     64 % 0 in 0.0 W/m2 CLR
06:05 46 °F 35.2 °F 30.3 in Calm     66 % 0 in 0.0 W/m2 CLR
06:10 46 °F 34.5 °F 30.3 in Calm     64 % 0 in 0.0 W/m2 CLR
06:15 46 °F 34.9 °F 30.3 in Calm     65 % 0 in 0.0 W/m2 CLR
06:20 45.9 °F 35.1 °F 30.3 in Calm     66 % 0 in 0.0 W/m2 CLR
06:25 45.5 °F 35.2 °F 30.3 in Calm     67 % 0 in 0.0 W/m2 CLR
06:30 45.3 °F 35.1 °F 30.3 in Calm     67 % 0 in 0.0 W/m2 CLR
06:35 45.3 °F 34.2 °F 30.3 in Calm     65 % 0 in 0.0 W/m2 CLR
06:40 45.1 °F 33.6 °F 30.3 in Calm     64 % 0 in 0.0 W/m2 CLR
06:45 45 °F 33.8 °F 30.3 in Calm     65 % 0 in 0.0 W/m2 CLR
06:50 44.4 °F 34.2 °F 30.3 in Calm     67 % 0 in 0.0 W/m2 CLR
06:55 44.1 °F 34.2 °F 30.3 in Calm     68 % 0 in 0.0 W/m2 CLR
07:00 43.3 °F 34 °F 30.3 in Calm     69 % 0 in 0.0 W/m2 CLR
07:05 43.2 °F 34 °F 30.3 in Calm     70 % 0 in 0.0 W/m2 CLR
07:10 42.6 °F 33.4 °F 30.3 in Calm     70 % 0 in 0.0 W/m2 CLR
07:15 42.4 °F 33.1 °F 30.3 in Calm     69 % 0 in 0.0 W/m2 CLR
07:20 42.3 °F 32.7 °F 30.3 in Calm     69 % 0 in 0.0 W/m2 CLR
07:25 42.3 °F 32.5 °F 30.3 in Calm     68 % 0 in 0.0 W/m2 CLR
07:30 42.3 °F 32.2 °F 30.3 in Calm     67 % 0 in 0.0 W/m2 CLR
07:35 42.3 °F 31.6 °F 30.3 in Calm     66 % 0 in 0.0 W/m2 CLR
07:40 42.3 °F 30.9 °F 30.3 in Calm     64 % 0 in 0.0 W/m2 CLR
07:45 42.4 °F 30.7 °F 30.3 in Calm     63 % 0 in 0.0 W/m2 CLR
07:50 42.6 °F 30 °F 30.3 in Calm     61 % 0 in 0.0 W/m2 CLR
07:55 42.6 °F 29.3 °F 30.3 in Calm     59 % 0 in 0.0 W/m2 CLR
08:00 43 °F 29.1 °F 30.3 in Calm     58 % 0 in 0.0 W/m2 CLR
08:05 43 °F 28.8 °F 30.3 in Calm     57 % 0 in 0.0 W/m2 CLR
08:10 42.6 °F 28 °F 30.3 in Calm     56 % 0 in 0.0 W/m2 CLR
08:16 42.6 °F 28 °F 30.3 in Calm     56 % 0 in 0.0 W/m2 CLR
08:21 42.4 °F 26.6 °F 30.3 in Calm     53 % 0 in 0.0 W/m2 CLR
08:26 42.6 °F 26.2 °F 30.3 in Calm     52 % 0 in 5.0 W/m2 BKN
08:31 42.6 °F 25.9 °F 30.3 in Calm     51 % 0 in 7.0 W/m2 BKN
08:36 42.6 °F 26.2 °F 30.3 in Calm     52 % 0 in 9.0 W/m2 BKN
08:41 42.3 °F 25.3 °F 30.3 in Calm     51 % 0 in 11.0 W/m2 BKN
08:46 43 °F 24.4 °F 30.3 in Calm     48 % 0 in 12.0 W/m2 BKN
08:51 43.3 °F 24.4 °F 30.3 in Calm     47 % 0 in 14.0 W/m2 BKN
08:56 43.5 °F 24.3 °F 30.3 in Calm     46 % 0 in 18.0 W/m2 BKN
09:01 44.1 °F 23.5 °F 30.3 in Calm     44 % 0 in 21.0 W/m2 BKN
09:06 44.4 °F 21.6 °F 30.3 in Calm     40 % 0 in 26.0 W/m2 BKN
09:11 45.1 °F 21.6 °F 30.3 in Calm     39 % 0 in 40.0 W/m2 BKN
09:16 45.7 °F 20.8 °F 30.3 in Calm     37 % 0 in 53.0 W/m2 BKN
09:21 46 °F 19.8 °F 30.3 in Calm     35 % 0 in 44.0 W/m2 BKN
09:26 46.4 °F 20.8 °F 30.3 in Calm     36 % 0 in 67.0 W/m2 BKN
09:31 46.8 °F 19.2 °F 30.3 in Calm     33 % 0 in 83.0 W/m2 BKN
09:36 46.8 °F 19.9 °F 30.3 in Calm     34 % 0 in 83.0 W/m2 BKN
09:41 46.8 °F 19.2 °F 30.3 in Calm     33 % 0 in 116.0 W/m2 BKN
09:46 46.9 °F 18.7 °F 30.3 in Calm     32 % 0 in 130.0 W/m2 BKN
09:51 47.3 °F 19.6 °F 30.3 in Calm     33 % 0 in 111.0 W/m2 BKN
09:56 47.5 °F 19 °F 30.3 in Calm     32 % 0 in 160.0 W/m2 BKN
10:01 47.7 °F 19.2 °F 30.3 in Calm     32 % 0 in 174.0 W/m2 SCT
10:06 47.7 °F 17.8 °F 30.3 in Calm     30 % 0 in 141.0 W/m2 SCT
10:11 47.8 °F 17.1 °F 30.3 in Calm     29 % 0 in 193.0 W/m2 BKN
10:16 48.2 °F 18.1 °F 30.3 in Calm     30 % 0 in 111.0 W/m2 SCT
10:21 48.4 °F 19.8 °F 30.3 in Calm     32 % 0 in 229.0 W/m2 SCT
10:26 48.4 °F 19 °F 30.3 in Calm     31 % 0 in 244.0 W/m2 SCT
10:31 48.6 °F 18.5 °F 30.3 in Calm     30 % 0 in 258.0 W/m2 SCT
10:36 48.6 °F 19.9 °F 30.3 in Calm     32 % 0 in 269.0 W/m2 SCT
10:41 48.7 °F 19.6 °F 30.3 in Calm     31 % 0 in 279.0 W/m2 SCT
10:46 48.9 °F 20.3 °F 30.3 in Calm     32 % 0 in 290.0 W/m2 SCT
10:51 49.1 °F 21.2 °F 30.3 in Calm     33 % 0 in 301.0 W/m2 FEW
10:56 49.5 °F 22.3 °F 30.3 in Calm     34 % 0 in 311.0 W/m2 FEW
11:01 49.6 °F 21.6 °F 30.3 in Calm     33 % 0 in 320.0 W/m2 FEW
11:06 49.6 °F 19.6 °F 30.3 in Calm     30 % 0 in 329.0 W/m2 FEW
11:11 49.8 °F 18 °F 30.3 in Calm     28 % 0 in 338.0 W/m2 FEW
11:16 49.8 °F 18.9 °F 30.3 in Calm     29 % 0 in 346.0 W/m2 FEW
11:21 50 °F 19.8 °F 30.3 in Calm     30 % 0 in 353.0 W/m2 FEW
11:26 50.2 °F 19 °F 30.3 in Calm     29 % 0 in 360.0 W/m2 FEW
11:31 50.2 °F 19 °F 30.3 in Calm     29 % 0 in 369.0 W/m2 FEW
11:36 50.4 °F 18.5 °F 30.3 in Calm     28 % 0 in 376.0 W/m2 FEW
11:42 50.5 °F 19.6 °F 30.3 in Calm     29 % 0 in 383.0 W/m2 FEW
11:47 50.7 °F 18.9 °F 30.3 in Calm     28 % 0 in 390.0 W/m2 FEW
11:52 51.1 °F 20.7 °F 30.3 in Calm     30 % 0 in 396.0 W/m2 FEW
11:57 51.3 °F 20.8 °F 30.3 in Calm     30 % 0 in 401.0 W/m2 CLR
12:02 51.4 °F 21 °F 30.3 in Calm     30 % 0 in 408.0 W/m2 CLR
12:07 51.4 °F 18.7 °F 30.3 in Calm     27 % 0 in 411.0 W/m2 CLR
12:12 51.3 °F 19.2 °F 30.3 in Calm     28 % 0 in 417.0 W/m2 CLR
12:17 51.4 °F 20.1 °F 30.3 in Calm     29 % 0 in 420.0 W/m2 CLR
12:22 51.6 °F 18.7 °F 30.3 in Calm     27 % 0 in 425.0 W/m2 CLR
12:27 51.6 °F 19.6 °F 30.3 in Calm     28 % 0 in 429.0 W/m2 CLR
12:32 52 °F 18.9 °F 30.3 in Calm     27 % 0 in 432.0 W/m2 CLR
12:37 52.2 °F 18.3 °F 30.3 in Calm     26 % 0 in 434.0 W/m2 CLR
12:42 52.2 °F 17.2 °F 30.3 in Calm     25 % 0 in 436.0 W/m2 CLR
12:47 51.8 °F 18 °F 30.3 in Calm     26 % 0 in 438.0 W/m2 CLR
12:52 52 °F 18.9 °F 30.3 in Calm     27 % 0 in 439.0 W/m2 CLR
12:57 52 °F 18.1 °F 30.3 in Calm     26 % 0 in 441.0 W/m2 CLR
13:02 52.2 °F 19.2 °F 30.3 in Calm     27 % 0 in 441.0 W/m2 CLR
13:07 52.2 °F 17.2 °F 30.3 in Calm     25 % 0 in 441.0 W/m2 CLR
13:12 52 °F 18.1 °F 30.3 in Calm     26 % 0 in 441.0 W/m2 CLR
13:17 52.2 °F 19 °F 30.3 in Calm     27 % 0 in 439.0 W/m2 CLR
13:22 52.3 °F 19.2 °F 30.3 in Calm     27 % 0 in 439.0 W/m2 CLR
13:27 52.5 °F 21 °F 30.3 in Calm     29 % 0 in 439.0 W/m2 CLR
13:32 52.5 °F 18.7 °F 30.3 in Calm     26 % 0 in 438.0 W/m2 CLR
13:37 52.5 °F 19.6 °F 30.3 in Calm     27 % 0 in 434.0 W/m2 CLR
13:42 52.7 °F 19.6 °F 30.3 in Calm     27 % 0 in 432.0 W/m2 CLR
13:47 52.9 °F 20.7 °F 30.3 in Calm     28 % 0 in 425.0 W/m2 CLR
13:52 52.9 °F 20.7 °F 30.2 in Calm     28 % 0 in 425.0 W/m2 CLR
13:57 53.1 °F 20.8 °F 30.3 in Calm     28 % 0 in 424.0 W/m2 CLR
14:02 53.2 °F 21 °F 30.3 in Calm     28 % 0 in 420.0 W/m2 CLR
14:07 53.2 °F 19.2 °F 30.2 in Calm     26 % 0 in 415.0 W/m2 CLR
14:12 53.2 °F 21.7 °F 30.2 in Calm     29 % 0 in 411.0 W/m2 CLR
14:17 53.2 °F 20.1 °F 30.2 in Calm     27 % 0 in 404.0 W/m2 CLR
14:22 53.8 °F 20.5 °F 30.2 in Calm     27 % 0 in 401.0 W/m2 CLR
14:27 53.8 °F 21.4 °F 30.2 in Calm     28 % 0 in 394.0 W/m2 CLR
14:32 53.4 °F 21 °F 30.2 in Calm     28 % 0 in 388.0 W/m2 CLR
14:37 53.2 °F 21.7 °F 30.2 in Calm     29 % 0 in 381.0 W/m2 CLR
14:42 53.2 °F 21.7 °F 30.2 in Calm     29 % 0 in 374.0 W/m2 CLR
14:47 53.2 °F 20.8 °F 30.2 in Calm     28 % 0 in 367.0 W/m2 CLR
14:52 53.2 °F 21.7 °F 30.2 in Calm     29 % 0 in 360.0 W/m2 CLR
14:57 53.1 °F 21.6 °F 30.2 in Calm     29 % 0 in 352.0 W/m2 CLR
15:02 53.2 °F 21.7 °F 30.2 in Calm     29 % 0 in 345.0 W/m2 CLR
15:07 53.2 °F 21.7 °F 30.2 in Calm     29 % 0 in 334.0 W/m2 CLR
15:12 53.4 °F 22.6 °F 30.2 in Calm     30 % 0 in 325.0 W/m2 CLR
15:17 53.2 °F 22.6 °F 30.2 in Calm     30 % 0 in 316.0 W/m2 CLR
15:22 53.2 °F 21.7 °F 30.2 in Calm     29 % 0 in 308.0 W/m2 CLR
15:27 53.4 °F 24.3 °F 30.2 in Calm     32 % 0 in 297.0 W/m2 CLR
15:32 53.2 °F 22.6 °F 30.2 in Calm     30 % 0 in 287.0 W/m2 CLR
15:37 53.4 °F 22.6 °F 30.2 in Calm     30 % 0 in 276.0 W/m2 CLR
15:42 53.6 °F 23.7 °F 30.2 in Calm     31 % 0 in 265.0 W/m2 CLR
15:47 53.4 °F 22.6 °F 30.2 in Calm     30 % 0 in 253.0 W/m2 CLR
15:52 53.4 °F 24.3 °F 30.2 in Calm     32 % 0 in 237.0 W/m2 CLR
15:57 53.4 °F 23.5 °F 30.2 in Calm     31 % 0 in 225.0 W/m2 CLR
16:02 53.4 °F 24.3 °F 30.2 in Calm     32 % 0 in 211.0 W/m2 CLR
16:07 53.4 °F 25.7 °F 30.2 in Calm     34 % 0 in 197.0 W/m2 CLR
16:12 53.2 °F 24.3 °F 30.2 in Calm     32 % 0 in 181.0 W/m2 CLR
16:17 53.4 °F 25 °F 30.2 in Calm     33 % 0 in 167.0 W/m2 CLR
16:22 53.2 °F 24.1 °F 30.2 in Calm     32 % 0 in 153.0 W/m2 CLR
16:28 53.1 °F 24.1 °F 30.2 in Calm     32 % 0 in 139.0 W/m2 CLR
16:33 52.9 °F 25.2 °F 30.2 in Calm     34 % 0 in 123.0 W/m2 CLR
16:38 52.9 °F 25.9 °F 30.2 in Calm     35 % 0 in 109.0 W/m2 CLR
16:43 52.7 °F 25.9 °F 30.3 in Calm     35 % 0 in 97.0 W/m2 CLR
16:48 52.5 °F 25.7 °F 30.3 in Calm     35 % 0 in 83.0 W/m2 CLR
16:53 52.5 °F 25.5 °F 30.3 in Calm     35 % 0 in 65.0 W/m2 CLR
16:58 52.3 °F 24.8 °F 30.3 in Calm     34 % 0 in 54.0 W/m2 CLR
17:03 52.3 °F 25.5 °F 30.3 in Calm     35 % 0 in 49.0 W/m2 OVC
17:08 52 °F 25.9 °F 30.3 in Calm     36 % 0 in 37.0 W/m2 OVC
17:13 51.4 °F 26.8 °F 30.3 in Calm     38 % 0 in 26.0 W/m2 OVC
17:18 51.3 °F 26.4 °F 30.3 in Calm     38 % 0 in 19.0 W/m2 OVC
17:23 50.7 °F 26.1 °F 30.3 in Calm     38 % 0 in 14.0 W/m2 OVC
17:28 50.4 °F 26.2 °F 30.3 in Calm     39 % 0 in 12.0 W/m2 OVC
17:33 50 °F 26.1 °F 30.3 in Calm     39 % 0 in 11.0 W/m2 OVC
17:38 50 °F 26.1 °F 30.3 in Calm     39 % 0 in 9.0 W/m2 OVC
17:43 49.8 °F 26.4 °F 30.3 in Calm     40 % 0 in 5.0 W/m2 OVC
17:48 49.6 °F 26.2 °F 30.3 in Calm     40 % 0 in 0.0 W/m2 CLR
17:53 49.6 °F 27 °F 30.3 in Calm     41 % 0 in 0.0 W/m2 CLR
17:58 49.5 °F 26.8 °F 30.3 in Calm     41 % 0 in 0.0 W/m2 CLR
18:03 49.1 °F 27 °F 30.3 in Calm     42 % 0 in 0.0 W/m2 CLR
18:08 48.7 °F 26.8 °F 30.3 in Calm     42 % 0 in 0.0 W/m2 CLR
18:13 48.6 °F 27.7 °F 30.3 in Calm     44 % 0 in 0.0 W/m2 CLR
18:18 48.2 °F 27.3 °F 30.3 in Calm     44 % 0 in 0.0 W/m2 CLR
18:23 48 °F 27.7 °F 30.3 in Calm     45 % 0 in 0.0 W/m2 CLR
18:28 47.8 °F 27.7 °F 30.3 in Calm     45 % 0 in 0.0 W/m2 CLR
18:33 47.5 °F 28.8 °F 30.3 in Calm     48 % 0 in 0.0 W/m2 CLR
18:38 46.6 °F 27.9 °F 30.3 in Calm     48 % 0 in 0.0 W/m2 CLR
18:43 45.7 °F 27.7 °F 30.3 in Calm     49 % 0 in 0.0 W/m2 CLR
18:48 45.7 °F 27.5 °F 30.3 in Calm     49 % 0 in 0.0 W/m2 CLR
18:53 45.9 °F 27.9 °F 30.3 in Calm     49 % 0 in 0.0 W/m2 CLR
18:58 45.3 °F 28.2 °F 30.3 in Calm     51 % 0 in 0.0 W/m2 CLR
19:03 43.9 °F 28.2 °F 30.3 in Calm     54 % 0 in 0.0 W/m2 CLR
19:08 42.8 °F 28.2 °F 30.3 in Calm     56 % 0 in 0.0 W/m2 CLR
19:13 43.3 °F 28.2 °F 30.3 in Calm     55 % 0 in 0.0 W/m2 CLR
19:18 44.1 °F 28.4 °F 30.3 in Calm     54 % 0 in 0.0 W/m2 CLR
19:23 43.9 °F 28.8 °F 30.3 in Calm     55 % 0 in 0.0 W/m2 CLR
19:28 43.2 °F 28.6 °F 30.3 in Calm     56 % 0 in 0.0 W/m2 CLR
19:33 42.6 °F 28.4 °F 30.3 in Calm     57 % 0 in 0.0 W/m2 CLR
19:38 42.3 °F 28.6 °F 30.3 in Calm     58 % 0 in 0.0 W/m2 CLR
19:43 42.3 °F 28.6 °F 30.3 in Calm     58 % 0 in 0.0 W/m2 CLR
19:48 42.4 °F 29.1 °F 30.3 in Calm     59 % 0 in 0.0 W/m2 CLR
19:53 43.3 °F 28.8 °F 30.3 in Calm     56 % 0 in 0.0 W/m2 CLR
19:58 44.1 °F 28.9 °F 30.3 in Calm     55 % 0 in 0.0 W/m2 CLR
20:03 44.1 °F 28.9 °F 30.3 in Calm     55 % 0 in 0.0 W/m2 CLR
20:08 43.7 °F 28.9 °F 30.3 in Calm     56 % 0 in 0.0 W/m2 CLR
20:13 43.2 °F 28.9 °F 30.3 in Calm     57 % 0 in 0.0 W/m2 CLR
20:18 42.1 °F 28.8 °F 30.3 in Calm     59 % 0 in 0.0 W/m2 CLR
20:24 41.2 °F 28.8 °F 30.3 in Calm     61 % 0 in 0.0 W/m2 CLR
20:29 40.5 °F 28.8 °F 30.3 in Calm     63 % 0 in 0.0 W/m2 CLR
20:34 40.3 °F 28.9 °F 30.3 in Calm     64 % 0 in 0.0 W/m2 CLR
20:39 40.3 °F 29.1 °F 30.3 in Calm     64 % 0 in 0.0 W/m2 CLR
20:44 40.1 °F 28.9 °F 30.3 in Calm     64 % 0 in 0.0 W/m2 CLR
20:49 40.3 °F 28.9 °F 30.3 in Calm     64 % 0 in 0.0 W/m2 CLR
20:54 40.6 °F 28.9 °F 30.3 in Calm     63 % 0 in 0.0 W/m2 CLR
20:59 42.1 °F 29.1 °F 30.3 in Calm     60 % 0 in 0.0 W/m2 CLR
21:04 43.5 °F 29.3 °F 30.3 in Calm     57 % 0 in 0.0 W/m2 CLR
21:09 44.4 °F 28.9 °F 30.3 in Calm     54 % 0 in 0.0 W/m2 CLR
21:14 44.6 °F 28.9 °F 30.3 in Calm     54 % 0 in 0.0 W/m2 CLR
21:19 44.4 °F 28.8 °F 30.3 in Calm     54 % 0 in 0.0 W/m2 CLR
21:24 44.6 °F 28.6 °F 30.3 in Calm     53 % 0 in 0.0 W/m2 CLR
21:29 44.4 °F 28.9 °F 30.3 in Calm     54 % 0 in 0.0 W/m2 CLR
21:34 43.9 °F 28.2 °F 30.3 in Calm     54 % 0 in 0.0 W/m2 CLR
21:39 43.3 °F 28.2 °F 30.3 in Calm     55 % 0 in 0.0 W/m2 CLR
21:44 43 °F 27.9 °F 30.3 in Calm     55 % 0 in 0.0 W/m2 CLR
21:49 42.4 °F 28.2 °F 30.3 in Calm     57 % 0 in 0.0 W/m2 CLR
21:54 41.7 °F 28.4 °F 30.3 in Calm     59 % 0 in 0.0 W/m2 CLR
21:59 41 °F 28.2 °F 30.4 in Calm     60 % 0 in 0.0 W/m2 CLR
22:04 40.8 °F 28 °F 30.4 in Calm     60 % 0 in 0.0 W/m2 CLR
22:09 40.5 °F 28.6 °F 30.4 in Calm     62 % 0 in 0.0 W/m2 CLR
22:14 39.7 °F 28.2 °F 30.4 in Calm     63 % 0 in 0.0 W/m2 CLR
22:19 40.3 °F 28.2 °F 30.4 in Calm     62 % 0 in 0.0 W/m2 CLR
22:24 40.6 °F 28.6 °F 30.4 in Calm     62 % 0 in 0.0 W/m2 CLR
22:29 40.3 °F 28.2 °F 30.4 in Calm     62 % 0 in 0.0 W/m2 CLR
22:34 39.7 °F 28.2 °F 30.4 in Calm     63 % 0 in 0.0 W/m2 CLR
22:39 39.7 °F 28 °F 30.4 in Calm     63 % 0 in 0.0 W/m2 CLR
22:44 39.6 °F 28.4 °F 30.4 in Calm     64 % 0 in 0.0 W/m2 CLR
22:49 39.4 °F 28.6 °F 30.4 in Calm     65 % 0 in 0.0 W/m2 CLR
22:54 39 °F 28.2 °F 30.4 in Calm     65 % 0 in 0.0 W/m2 CLR
22:59 39 °F 28.8 °F 30.4 in Calm     66 % 0 in 0.0 W/m2 CLR
23:04 39.2 °F 28.8 °F 30.4 in Calm     66 % 0 in 0.0 W/m2 CLR
23:09 39.4 °F 28.9 °F 30.4 in Calm     66 % 0 in 0.0 W/m2 CLR
23:14 39.2 °F 28.8 °F 30.4 in Calm     66 % 0 in 0.0 W/m2 CLR
23:19 39 °F 28.8 °F 30.4 in Calm     66 % 0 in 0.0 W/m2 CLR
23:24 38.7 °F 28.8 °F 30.4 in Calm     67 % 0 in 0.0 W/m2 CLR
23:29 38.3 °F 28.2 °F 30.4 in Calm     67 % 0 in 0.0 W/m2 CLR
23:34 37.6 °F 28.2 °F 30.4 in Calm     69 % 0 in 0.0 W/m2 CLR
23:39 38.1 °F 28.9 °F 30.4 in Calm     69 % 0 in 0.0 W/m2 CLR
23:44 38.8 °F 28.9 °F 30.4 in Calm     67 % 0 in 0.0 W/m2 CLR
23:49 39 °F 28.9 °F 30.4 in Calm     67 % 0 in 0.0 W/m2 CLR
23:54 38.3 °F 28.2 °F 30.4 in Calm     67 % 0 in 0.0 W/m2 CLR
23:59 37.2 °F 28 °F 30.4 in Calm     69 % 0 in 0.0 W/m2 CLR
Lo Temps de Massalio
Compliments of Weather Underground - 1.25 mb